PWSweather.com
Personal Weather Stations
Station Observations
SUBOTICARS
SuboticaYU

SuboticaYU

Lat: 46.1296717, Lon: 19.641551

Elevation: 361

Station Type: Nexus

http://sumeteo.info

High Low Average
Temperature 47.3°F8.5°C 32.9°F0.5°C 37.3°F2.9°C
Dew Point 30.8°F-0.7°C 21.1°F-6.1°C 24.9°F-3.9°C
Winds 8.1 mph 13.0 kmh Calm Calm 4.0 mph WSW6.4 kmh WSW
Wind Gusts 13.8 mph22.2 kmh -- 5.0 mph8.0 kmh
Humidity 73% 50% 61%
Pressure 29.64 in1003.7 mb 29.58 in1001.7 mb -
Precipitation 0.00 in0.0 mm - -
Hour Temp Dew Point Humidity Winds Wind Gusts Pressure Precip Precip Rate Daily Precip Total
12:00 AM 35.8°F2.1°C 22.4°F-5.3°C 58% 4.6 mph SSW7.4 kmh SSW 5.8 mph9.3 kmh 29.61 in1002.7 mb - 0.00 in0.0 mm 0.00 in0.0 mm
12:10 AM 35.6°F2.0°C 22.3°F-5.4°C 58% 3.5 mph W5.6 kmh W 5.8 mph9.3 kmh 29.61 in1002.7 mb - 0.00 in0.0 mm 0.00 in0.0 mm
12:15 AM 35.6°F2.0°C 22.3°F-5.4°C 58% 5.8 mph W9.3 kmh W 9.2 mph14.8 kmh 29.61 in1002.7 mb - 0.00 in0.0 mm 0.00 in0.0 mm
12:20 AM 35.4°F1.9°C 22.1°F-5.5°C 58% 4.6 mph WSW7.4 kmh WSW 4.6 mph7.4 kmh 29.61 in1002.7 mb - 0.00 in0.0 mm 0.00 in0.0 mm
12:25 AM 35.1°F1.7°C 21.8°F-5.7°C 58% 5.8 mph WSW9.3 kmh WSW 6.9 mph11.1 kmh 29.61 in1002.7 mb - 0.00 in0.0 mm 0.00 in0.0 mm
12:30 AM 34.9°F1.6°C 21.6°F-5.8°C 58% 4.6 mph WSW7.4 kmh WSW 5.8 mph9.3 kmh 29.60 in1002.4 mb - 0.00 in0.0 mm 0.00 in0.0 mm
12:35 AM 34.5°F1.4°C 21.7°F-5.7°C 59% 4.6 mph SW7.4 kmh SW 5.8 mph9.3 kmh 29.60 in1002.4 mb - 0.00 in0.0 mm 0.00 in0.0 mm
12:40 AM 34.2°F1.2°C 21.3°F-5.9°C 59% 4.6 mph SW7.4 kmh SW 6.9 mph11.1 kmh 29.60 in1002.4 mb - 0.00 in0.0 mm 0.00 in0.0 mm
12:45 AM 34.0°F1.1°C 21.1°F-6.1°C 59% 3.5 mph W5.6 kmh W 3.5 mph5.6 kmh 29.60 in1002.4 mb - 0.00 in0.0 mm 0.00 in0.0 mm
12:50 AM 33.6°F0.9°C 21.2°F-6.0°C 60% 4.6 mph WSW7.4 kmh WSW 6.9 mph11.1 kmh 29.60 in1002.4 mb - 0.00 in0.0 mm 0.00 in0.0 mm
12:55 AM 33.4°F0.8°C 21.4°F-5.9°C 61% 4.6 mph WSW7.4 kmh WSW 5.8 mph9.3 kmh 29.60 in1002.4 mb - 0.00 in0.0 mm 0.00 in0.0 mm
01:00 AM 33.3°F0.7°C 21.3°F-5.9°C 61% 4.6 mph WSW7.4 kmh WSW 3.5 mph5.6 kmh 29.60 in1002.4 mb - 0.00 in0.0 mm 0.00 in0.0 mm
01:10 AM 33.1°F0.6°C 21.1°F-6.1°C 61% 4.6 mph W7.4 kmh W 4.6 mph7.4 kmh 29.60 in1002.4 mb - 0.00 in0.0 mm 0.00 in0.0 mm
01:15 AM 33.1°F0.6°C 21.1°F-6.1°C 61% 5.8 mph WSW9.3 kmh WSW 6.9 mph11.1 kmh 29.59 in1002.0 mb - 0.00 in0.0 mm 0.00 in0.0 mm
01:20 AM 33.3°F0.7°C 21.3°F-5.9°C 61% 5.8 mph WSW9.3 kmh WSW 8.1 mph13.0 kmh 29.59 in1002.0 mb - 0.00 in0.0 mm 0.00 in0.0 mm
01:25 AM 33.3°F0.7°C 21.6°F-5.8°C 62% 4.6 mph WSW7.4 kmh WSW 5.8 mph9.3 kmh 29.59 in1002.0 mb - 0.00 in0.0 mm 0.00 in0.0 mm
01:30 AM 33.4°F0.8°C 21.8°F-5.7°C 62% 4.6 mph W7.4 kmh W 5.8 mph9.3 kmh 29.60 in1002.4 mb - 0.00 in0.0 mm 0.00 in0.0 mm
01:35 AM 33.6°F0.9°C 21.6°F-5.8°C 61% 4.6 mph WSW7.4 kmh WSW 4.6 mph7.4 kmh 29.60 in1002.4 mb - 0.00 in0.0 mm 0.00 in0.0 mm
01:40 AM 33.6°F0.9°C 21.6°F-5.8°C 61% 6.9 mph SW11.1 kmh SW 9.2 mph14.8 kmh 29.60 in1002.4 mb - 0.00 in0.0 mm 0.00 in0.0 mm
01:45 AM 33.6°F0.9°C 22.0°F-5.6°C 62% 5.8 mph WSW9.3 kmh WSW 9.2 mph14.8 kmh 29.60 in1002.4 mb - 0.00 in0.0 mm 0.00 in0.0 mm
01:50 AM 33.6°F0.9°C 22.0°F-5.6°C 62% 4.6 mph SSW7.4 kmh SSW 5.8 mph9.3 kmh 29.60 in1002.4 mb - 0.00 in0.0 mm 0.00 in0.0 mm
01:55 AM 33.6°F0.9°C 22.0°F-5.6°C 62% 3.5 mph WSW5.6 kmh WSW 5.8 mph9.3 kmh 29.60 in1002.4 mb - 0.00 in0.0 mm 0.00 in0.0 mm
02:00 AM 33.4°F0.8°C 21.8°F-5.7°C 62% 5.8 mph SW9.3 kmh SW 9.2 mph14.8 kmh 29.59 in1002.0 mb - 0.00 in0.0 mm 0.00 in0.0 mm
02:10 AM 33.3°F0.7°C 21.6°F-5.8°C 62% 6.9 mph SSW11.1 kmh SSW 10.4 mph16.7 kmh 29.59 in1002.0 mb - 0.00 in0.0 mm 0.00 in0.0 mm
02:15 AM 33.3°F0.7°C 21.6°F-5.8°C 62% 3.5 mph WSW5.6 kmh WSW 4.6 mph7.4 kmh 29.60 in1002.4 mb - 0.00 in0.0 mm 0.00 in0.0 mm
02:20 AM 33.4°F0.8°C 21.8°F-5.7°C 62% 5.8 mph WSW9.3 kmh WSW 6.9 mph11.1 kmh 29.60 in1002.4 mb - 0.00 in0.0 mm 0.00 in0.0 mm
02:25 AM 33.6°F0.9°C 22.0°F-5.6°C 62% 4.6 mph WSW7.4 kmh WSW 4.6 mph7.4 kmh 29.60 in1002.4 mb - 0.00 in0.0 mm 0.00 in0.0 mm
02:30 AM 33.6°F0.9°C 22.0°F-5.6°C 62% 5.8 mph WSW9.3 kmh WSW 6.9 mph11.1 kmh 29.59 in1002.0 mb - 0.00 in0.0 mm 0.00 in0.0 mm
02:35 AM 33.6°F0.9°C 22.0°F-5.6°C 62% 6.9 mph SW11.1 kmh SW 8.1 mph13.0 kmh 29.59 in1002.0 mb - 0.00 in0.0 mm 0.00 in0.0 mm
02:40 AM 33.6°F0.9°C 22.0°F-5.6°C 62% 4.6 mph WSW7.4 kmh WSW 6.9 mph11.1 kmh 29.59 in1002.0 mb - 0.00 in0.0 mm 0.00 in0.0 mm
02:45 AM 33.6°F0.9°C 22.0°F-5.6°C 62% 5.8 mph W9.3 kmh W 5.8 mph9.3 kmh 29.59 in1002.0 mb - 0.00 in0.0 mm 0.00 in0.0 mm
02:50 AM 33.6°F0.9°C 22.0°F-5.6°C 62% 5.8 mph WSW9.3 kmh WSW 5.8 mph9.3 kmh 29.59 in1002.0 mb - 0.00 in0.0 mm 0.00 in0.0 mm
02:55 AM 33.6°F0.9°C 22.0°F-5.6°C 62% 4.6 mph WSW7.4 kmh WSW 5.8 mph9.3 kmh 29.59 in1002.0 mb - 0.00 in0.0 mm 0.00 in0.0 mm
03:00 AM 33.6°F0.9°C 22.0°F-5.6°C 62% 5.8 mph SSW9.3 kmh SSW 5.8 mph9.3 kmh 29.59 in1002.0 mb - 0.00 in0.0 mm 0.00 in0.0 mm
03:10 AM 33.4°F0.8°C 21.8°F-5.7°C 62% 4.6 mph WSW7.4 kmh WSW 4.6 mph7.4 kmh 29.59 in1002.0 mb - 0.00 in0.0 mm 0.00 in0.0 mm
03:15 AM 33.4°F0.8°C 21.8°F-5.7°C 62% 6.9 mph WSW11.1 kmh WSW 6.9 mph11.1 kmh 29.59 in1002.0 mb - 0.00 in0.0 mm 0.00 in0.0 mm
03:20 AM 33.4°F0.8°C 22.2°F-5.4°C 63% 3.5 mph WSW5.6 kmh WSW 3.5 mph5.6 kmh 29.59 in1002.0 mb - 0.00 in0.0 mm 0.00 in0.0 mm
03:25 AM 33.4°F0.8°C 22.2°F-5.4°C 63% 3.5 mph SW5.6 kmh SW 4.6 mph7.4 kmh 29.59 in1002.0 mb - 0.00 in0.0 mm 0.00 in0.0 mm
03:30 AM 33.3°F0.7°C 22.0°F-5.6°C 63% 2.3 mph SW3.7 kmh SW 2.3 mph3.7 kmh 29.58 in1001.7 mb - 0.00 in0.0 mm 0.00 in0.0 mm
03:35 AM 33.4°F0.8°C 22.2°F-5.4°C 63% 2.3 mph WSW3.7 kmh WSW 2.3 mph3.7 kmh 29.58 in1001.7 mb - 0.00 in0.0 mm 0.00 in0.0 mm
03:40 AM 33.6°F0.9°C 22.4°F-5.3°C 63% 2.3 mph W3.7 kmh W 3.5 mph5.6 kmh 29.58 in1001.7 mb - 0.00 in0.0 mm 0.00 in0.0 mm
03:45 AM 33.6°F0.9°C 22.0°F-5.6°C 62% 2.3 mph WSW3.7 kmh WSW 2.3 mph3.7 kmh 29.59 in1002.0 mb - 0.00 in0.0 mm 0.00 in0.0 mm
03:50 AM 33.8°F1.0°C 22.1°F-5.5°C 62% 2.3 mph WNW3.7 kmh WNW 2.3 mph3.7 kmh 29.59 in1002.0 mb - 0.00 in0.0 mm 0.00 in0.0 mm
03:55 AM 34.0°F1.1°C 22.3°F-5.4°C 62% 2.3 mph WSW3.7 kmh WSW 2.3 mph3.7 kmh 29.59 in1002.0 mb - 0.00 in0.0 mm 0.00 in0.0 mm
04:00 AM 34.2°F1.2°C 22.5°F-5.3°C 62% 3.5 mph WSW5.6 kmh WSW 3.5 mph5.6 kmh 29.59 in1002.0 mb - 0.00 in0.0 mm 0.00 in0.0 mm
04:10 AM 34.5°F1.4°C 22.1°F-5.5°C 60% 3.5 mph NNW5.6 kmh NNW 5.8 mph9.3 kmh 29.59 in1002.0 mb - 0.00 in0.0 mm 0.00 in0.0 mm
04:15 AM 34.5°F1.4°C 22.1°F-5.5°C 60% 3.5 mph WNW5.6 kmh WNW 3.5 mph5.6 kmh 29.58 in1001.7 mb - 0.00 in0.0 mm 0.00 in0.0 mm
04:20 AM 34.5°F1.4°C 22.1°F-5.5°C 60% 3.5 mph WSW5.6 kmh WSW 4.6 mph7.4 kmh 29.58 in1001.7 mb - 0.00 in0.0 mm 0.00 in0.0 mm
04:25 AM 34.5°F1.4°C 22.1°F-5.5°C 60% 4.6 mph NW7.4 kmh NW 6.9 mph11.1 kmh 29.58 in1001.7 mb - 0.00 in0.0 mm 0.00 in0.0 mm
04:30 AM 34.5°F1.4°C 21.7°F-5.7°C 59% 5.8 mph NW9.3 kmh NW 9.2 mph14.8 kmh 29.59 in1002.0 mb - 0.00 in0.0 mm 0.00 in0.0 mm
04:35 AM 34.7°F1.5°C 21.8°F-5.7°C 59% 6.9 mph WNW11.1 kmh WNW 6.9 mph11.1 kmh 29.59 in1002.0 mb - 0.00 in0.0 mm 0.00 in0.0 mm
04:40 AM 34.7°F1.5°C 21.8°F-5.7°C 59% 5.8 mph NW9.3 kmh NW 8.1 mph13.0 kmh 29.59 in1002.0 mb - 0.00 in0.0 mm 0.00 in0.0 mm
04:45 AM 34.9°F1.6°C 22.0°F-5.6°C 59% 4.6 mph NW7.4 kmh NW 8.1 mph13.0 kmh 29.59 in1002.0 mb - 0.00 in0.0 mm 0.00 in0.0 mm
04:50 AM 34.9°F1.6°C 22.0°F-5.6°C 59% 4.6 mph WNW7.4 kmh WNW 6.9 mph11.1 kmh 29.59 in1002.0 mb - 0.00 in0.0 mm 0.00 in0.0 mm
04:55 AM 35.0°F1.7°C 21.7°F-5.7°C 58% 5.8 mph WNW9.3 kmh WNW 5.8 mph9.3 kmh 29.59 in1002.0 mb - 0.00 in0.0 mm 0.00 in0.0 mm
05:00 AM 35.1°F1.7°C 22.2°F-5.4°C 59% 5.8 mph WNW9.3 kmh WNW 8.1 mph13.0 kmh 29.59 in1002.0 mb - 0.00 in0.0 mm 0.00 in0.0 mm
05:10 AM 35.2°F1.8°C 21.9°F-5.6°C 58% 5.8 mph WNW9.3 kmh WNW 5.8 mph9.3 kmh 29.59 in1002.0 mb - 0.00 in0.0 mm 0.00 in0.0 mm
05:15 AM 35.2°F1.8°C 21.9°F-5.6°C 58% 5.8 mph NW9.3 kmh NW 9.2 mph14.8 kmh 29.59 in1002.0 mb - 0.00 in0.0 mm 0.00 in0.0 mm
05:20 AM 35.1°F1.7°C 21.8°F-5.7°C 58% 4.6 mph WNW7.4 kmh WNW 4.6 mph7.4 kmh 29.59 in1002.0 mb - 0.00 in0.0 mm 0.00 in0.0 mm
05:25 AM 35.2°F1.8°C 21.9°F-5.6°C 58% 4.6 mph NW7.4 kmh NW 4.6 mph7.4 kmh 29.59 in1002.0 mb - 0.00 in0.0 mm 0.00 in0.0 mm
05:30 AM 35.1°F1.7°C 21.8°F-5.7°C 58% 5.8 mph NW9.3 kmh NW 8.1 mph13.0 kmh 29.59 in1002.0 mb - 0.00 in0.0 mm 0.00 in0.0 mm
05:35 AM 35.1°F1.7°C 21.8°F-5.7°C 58% 4.6 mph NW7.4 kmh NW 10.4 mph16.7 kmh 29.59 in1002.0 mb - 0.00 in0.0 mm 0.00 in0.0 mm
05:40 AM 35.1°F1.7°C 21.8°F-5.7°C 58% 4.6 mph NW7.4 kmh NW 5.8 mph9.3 kmh 29.59 in1002.0 mb - 0.00 in0.0 mm 0.00 in0.0 mm
05:45 AM 35.1°F1.7°C 21.8°F-5.7°C 58% 3.5 mph WNW5.6 kmh WNW 4.6 mph7.4 kmh 29.59 in1002.0 mb - 0.00 in0.0 mm 0.00 in0.0 mm
05:50 AM 35.1°F1.7°C 21.8°F-5.7°C 58% 5.8 mph WNW9.3 kmh WNW 8.1 mph13.0 kmh 29.59 in1002.0 mb - 0.00 in0.0 mm 0.00 in0.0 mm
05:55 AM 35.1°F1.7°C 21.8°F-5.7°C 58% 6.9 mph WNW11.1 kmh WNW 9.2 mph14.8 kmh 29.59 in1002.0 mb - 0.00 in0.0 mm 0.00 in0.0 mm
06:00 AM 35.1°F1.7°C 21.8°F-5.7°C 58% 5.8 mph NNW9.3 kmh NNW 6.9 mph11.1 kmh 29.59 in1002.0 mb - 0.00 in0.0 mm 0.00 in0.0 mm
06:10 AM 35.1°F1.7°C 21.8°F-5.7°C 58% 4.6 mph NW7.4 kmh NW 8.1 mph13.0 kmh 29.59 in1002.0 mb - 0.00 in0.0 mm 0.00 in0.0 mm
06:15 AM 35.1°F1.7°C 21.8°F-5.7°C 58% 5.8 mph NW9.3 kmh NW 9.2 mph14.8 kmh 29.60 in1002.4 mb - 0.00 in0.0 mm 0.00 in0.0 mm
06:20 AM 35.1°F1.7°C 21.8°F-5.7°C 58% 3.5 mph WSW5.6 kmh WSW 4.6 mph7.4 kmh 29.60 in1002.4 mb - 0.00 in0.0 mm 0.00 in0.0 mm
06:25 AM 35.1°F1.7°C 21.8°F-5.7°C 58% 3.5 mph WNW5.6 kmh WNW 4.6 mph7.4 kmh 29.60 in1002.4 mb - 0.00 in0.0 mm 0.00 in0.0 mm
06:30 AM 35.2°F1.8°C 21.9°F-5.6°C 58% 3.5 mph NW5.6 kmh NW 3.5 mph5.6 kmh 29.60 in1002.4 mb - 0.00 in0.0 mm 0.00 in0.0 mm
06:35 AM 35.1°F1.7°C 21.8°F-5.7°C 58% 3.5 mph WNW5.6 kmh WNW 3.5 mph5.6 kmh 29.60 in1002.4 mb - 0.00 in0.0 mm 0.00 in0.0 mm
06:40 AM 35.1°F1.7°C 21.8°F-5.7°C 58% 2.3 mph W3.7 kmh W 2.3 mph3.7 kmh 29.60 in1002.4 mb - 0.00 in0.0 mm 0.00 in0.0 mm
06:45 AM 35.1°F1.7°C 22.2°F-5.4°C 59% 2.3 mph NW3.7 kmh NW 2.3 mph3.7 kmh 29.60 in1002.4 mb - 0.00 in0.0 mm 0.00 in0.0 mm
06:50 AM 35.2°F1.8°C 22.3°F-5.4°C 59% 3.5 mph W5.6 kmh W 3.5 mph5.6 kmh 29.60 in1002.4 mb - 0.00 in0.0 mm 0.00 in0.0 mm
06:55 AM 35.2°F1.8°C 21.9°F-5.6°C 58% 2.3 mph WNW3.7 kmh WNW 2.3 mph3.7 kmh 29.60 in1002.4 mb - 0.00 in0.0 mm 0.00 in0.0 mm
07:00 AM 35.5°F1.9°C 22.2°F-5.4°C 58% 3.5 mph WNW5.6 kmh WNW 3.5 mph5.6 kmh 29.61 in1002.7 mb - 0.00 in0.0 mm 0.00 in0.0 mm
07:10 AM 35.8°F2.1°C 22.4°F-5.3°C 58% 5.8 mph W9.3 kmh W 8.1 mph13.0 kmh 29.61 in1002.7 mb - 0.00 in0.0 mm 0.00 in0.0 mm
07:15 AM 36.1°F2.3°C 22.4°F-5.3°C 57% 6.9 mph W11.1 kmh W 10.4 mph16.7 kmh 29.60 in1002.4 mb - 0.00 in0.0 mm 0.00 in0.0 mm
07:20 AM 36.1°F2.3°C 22.4°F-5.3°C 57% 3.5 mph WNW5.6 kmh WNW 8.1 mph13.0 kmh 29.60 in1002.4 mb - 0.00 in0.0 mm 0.00 in0.0 mm
07:25 AM 36.3°F2.4°C 22.5°F-5.3°C 57% 4.6 mph WSW7.4 kmh WSW 5.8 mph9.3 kmh 29.60 in1002.4 mb - 0.00 in0.0 mm 0.00 in0.0 mm
07:30 AM 36.3°F2.4°C 22.5°F-5.3°C 57% 8.1 mph WNW13.0 kmh WNW 12.7 mph20.4 kmh 29.61 in1002.7 mb - 0.00 in0.0 mm 0.00 in0.0 mm
07:35 AM 36.3°F2.4°C 22.5°F-5.3°C 57% 5.8 mph NW9.3 kmh NW 5.8 mph9.3 kmh 29.61 in1002.7 mb - 0.00 in0.0 mm 0.00 in0.0 mm
07:40 AM 36.5°F2.5°C 22.7°F-5.2°C 57% 6.9 mph WNW11.1 kmh WNW 9.2 mph14.8 kmh 29.61 in1002.7 mb - 0.00 in0.0 mm 0.00 in0.0 mm
07:45 AM 36.5°F2.5°C 22.7°F-5.2°C 57% 6.9 mph WNW11.1 kmh WNW 8.1 mph13.0 kmh 29.60 in1002.4 mb - 0.00 in0.0 mm 0.00 in0.0 mm
07:50 AM 36.5°F2.5°C 22.7°F-5.2°C 57% 5.8 mph WNW9.3 kmh WNW 6.9 mph11.1 kmh 29.60 in1002.4 mb - 0.00 in0.0 mm 0.00 in0.0 mm
07:55 AM 36.5°F2.5°C 22.7°F-5.2°C 57% 4.6 mph WNW7.4 kmh WNW 5.8 mph9.3 kmh 29.60 in1002.4 mb - 0.00 in0.0 mm 0.00 in0.0 mm
08:00 AM 36.7°F2.6°C 22.9°F-5.1°C 57% 4.6 mph WNW7.4 kmh WNW 6.9 mph11.1 kmh 29.61 in1002.7 mb - 0.00 in0.0 mm 0.00 in0.0 mm
08:10 AM 36.5°F2.5°C 22.7°F-5.2°C 57% 6.9 mph NNW11.1 kmh NNW 8.1 mph13.0 kmh 29.61 in1002.7 mb - 0.00 in0.0 mm 0.00 in0.0 mm
08:15 AM 36.5°F2.5°C 22.7°F-5.2°C 57% 5.8 mph WNW9.3 kmh WNW 5.8 mph9.3 kmh 29.61 in1002.7 mb - 0.00 in0.0 mm 0.00 in0.0 mm
08:20 AM 36.5°F2.5°C 22.7°F-5.2°C 57% 5.8 mph W9.3 kmh W 5.8 mph9.3 kmh 29.61 in1002.7 mb - 0.00 in0.0 mm 0.00 in0.0 mm
08:25 AM 36.7°F2.6°C 22.9°F-5.1°C 57% 6.9 mph WSW11.1 kmh WSW 9.2 mph14.8 kmh 29.61 in1002.7 mb - 0.00 in0.0 mm 0.00 in0.0 mm
08:30 AM 36.7°F2.6°C 22.9°F-5.1°C 57% 5.8 mph WSW9.3 kmh WSW 9.2 mph14.8 kmh 29.62 in1003.0 mb - 0.00 in0.0 mm 0.00 in0.0 mm
08:35 AM 36.7°F2.6°C 22.9°F-5.1°C 57% 6.9 mph WNW11.1 kmh WNW 9.2 mph14.8 kmh 29.62 in1003.0 mb - 0.00 in0.0 mm 0.00 in0.0 mm
08:40 AM 36.9°F2.7°C 23.0°F-5.0°C 57% 6.9 mph NW11.1 kmh NW 6.9 mph11.1 kmh 29.62 in1003.0 mb - 0.00 in0.0 mm 0.00 in0.0 mm
08:45 AM 37.0°F2.8°C 23.2°F-4.9°C 57% 5.8 mph WNW9.3 kmh WNW 5.8 mph9.3 kmh 29.62 in1003.0 mb - 0.00 in0.0 mm 0.00 in0.0 mm
08:50 AM 37.0°F2.8°C 23.2°F-4.9°C 57% 6.9 mph WNW11.1 kmh WNW 8.1 mph13.0 kmh 29.62 in1003.0 mb - 0.00 in0.0 mm 0.00 in0.0 mm
08:55 AM 37.0°F2.8°C 23.2°F-4.9°C 57% 6.9 mph W11.1 kmh W 5.8 mph9.3 kmh 29.62 in1003.0 mb - 0.00 in0.0 mm 0.00 in0.0 mm
09:00 AM 37.2°F2.9°C 23.4°F-4.8°C 57% 8.1 mph NW13.0 kmh NW 11.5 mph18.5 kmh 29.62 in1003.0 mb - 0.00 in0.0 mm 0.00 in0.0 mm
09:10 AM 37.0°F2.8°C 23.2°F-4.9°C 57% 4.6 mph W7.4 kmh W 6.9 mph11.1 kmh 29.62 in1003.0 mb - 0.00 in0.0 mm 0.00 in0.0 mm
09:15 AM 37.0°F2.8°C 23.2°F-4.9°C 57% 4.6 mph W7.4 kmh W 4.6 mph7.4 kmh 29.62 in1003.0 mb - 0.00 in0.0 mm 0.00 in0.0 mm
09:20 AM 37.0°F2.8°C 23.6°F-4.7°C 58% 5.8 mph W9.3 kmh W 8.1 mph13.0 kmh 29.62 in1003.0 mb - 0.00 in0.0 mm 0.00 in0.0 mm
09:25 AM 37.0°F2.8°C 23.6°F-4.7°C 58% 3.5 mph WNW5.6 kmh WNW 3.5 mph5.6 kmh 29.62 in1003.0 mb - 0.00 in0.0 mm 0.00 in0.0 mm
09:30 AM 37.2°F2.9°C 23.8°F-4.6°C 58% 4.6 mph SW7.4 kmh SW 5.8 mph9.3 kmh 29.63 in1003.4 mb - 0.00 in0.0 mm 0.00 in0.0 mm
09:35 AM 37.2°F2.9°C 23.8°F-4.6°C 58% 4.6 mph WNW7.4 kmh WNW 9.2 mph14.8 kmh 29.63 in1003.4 mb - 0.00 in0.0 mm 0.00 in0.0 mm
09:40 AM 37.4°F3.0°C 24.0°F-4.4°C 58% 4.6 mph WSW7.4 kmh WSW 3.5 mph5.6 kmh 29.63 in1003.4 mb - 0.00 in0.0 mm 0.00 in0.0 mm
09:45 AM 37.4°F3.0°C 24.0°F-4.4°C 58% 4.6 mph WNW7.4 kmh WNW 5.8 mph9.3 kmh 29.63 in1003.4 mb - 0.00 in0.0 mm 0.00 in0.0 mm
09:50 AM 37.6°F3.1°C 24.1°F-4.4°C 58% 4.6 mph WNW7.4 kmh WNW 8.1 mph13.0 kmh 29.63 in1003.4 mb - 0.00 in0.0 mm 0.00 in0.0 mm
09:55 AM 37.8°F3.2°C 24.3°F-4.3°C 58% 4.6 mph WNW7.4 kmh WNW 4.6 mph7.4 kmh 29.63 in1003.4 mb - 0.00 in0.0 mm 0.00 in0.0 mm
10:00 AM 38.0°F3.3°C 24.5°F-4.2°C 58% 3.5 mph NW5.6 kmh NW 3.5 mph5.6 kmh 29.63 in1003.4 mb - 0.00 in0.0 mm 0.00 in0.0 mm
10:10 AM 38.8°F3.8°C 25.3°F-3.7°C 58% 4.6 mph WNW7.4 kmh WNW 6.9 mph11.1 kmh 29.63 in1003.4 mb - 0.00 in0.0 mm 0.00 in0.0 mm
10:15 AM 39.2°F4.0°C 25.6°F-3.6°C 58% 5.8 mph WNW9.3 kmh WNW 8.1 mph13.0 kmh 29.64 in1003.7 mb - 0.00 in0.0 mm 0.00 in0.0 mm
10:20 AM 39.6°F4.2°C 25.6°F-3.6°C 57% 4.6 mph NW7.4 kmh NW 8.1 mph13.0 kmh 29.64 in1003.7 mb - 0.00 in0.0 mm 0.00 in0.0 mm
10:25 AM 40.4°F4.7°C 26.3°F-3.2°C 57% 6.9 mph WNW11.1 kmh WNW 6.9 mph11.1 kmh 29.64 in1003.7 mb - 0.00 in0.0 mm 0.00 in0.0 mm
10:30 AM 40.7°F4.8°C 26.6°F-3.0°C 57% 5.8 mph WNW9.3 kmh WNW 5.8 mph9.3 kmh 29.64 in1003.7 mb - 0.00 in0.0 mm 0.00 in0.0 mm
10:35 AM 40.8°F4.9°C 26.3°F-3.2°C 56% 6.9 mph NW11.1 kmh NW 6.9 mph11.1 kmh 29.64 in1003.7 mb - 0.00 in0.0 mm 0.00 in0.0 mm
10:40 AM 40.8°F4.9°C 26.3°F-3.2°C 56% 4.6 mph W7.4 kmh W 5.8 mph9.3 kmh 29.64 in1003.7 mb - 0.00 in0.0 mm 0.00 in0.0 mm
10:45 AM 41.0°F5.0°C 26.5°F-3.1°C 56% 6.9 mph WNW11.1 kmh WNW 10.4 mph16.7 kmh 29.64 in1003.7 mb - 0.00 in0.0 mm 0.00 in0.0 mm
10:50 AM 41.2°F5.1°C 26.2°F-3.2°C 55% 8.1 mph W13.0 kmh W 13.8 mph22.2 kmh 29.64 in1003.7 mb - 0.00 in0.0 mm 0.00 in0.0 mm
10:55 AM 41.3°F5.2°C 26.3°F-3.2°C 55% 4.6 mph W7.4 kmh W 5.8 mph9.3 kmh 29.64 in1003.7 mb - 0.00 in0.0 mm 0.00 in0.0 mm
11:00 AM 41.4°F5.2°C 26.8°F-2.9°C 56% 4.6 mph WSW7.4 kmh WSW 5.8 mph9.3 kmh 29.64 in1003.7 mb - 0.00 in0.0 mm 0.00 in0.0 mm
11:10 AM 41.5°F5.3°C 27.0°F-2.8°C 56% 3.5 mph WNW5.6 kmh WNW 5.8 mph9.3 kmh 29.64 in1003.7 mb - 0.00 in0.0 mm 0.00 in0.0 mm
11:15 AM 41.7°F5.4°C 27.2°F-2.7°C 56% 5.8 mph WSW9.3 kmh WSW 5.8 mph9.3 kmh 29.64 in1003.7 mb - 0.00 in0.0 mm 0.00 in0.0 mm
11:20 AM 41.9°F5.5°C 26.9°F-2.8°C 55% 5.8 mph WNW9.3 kmh WNW 6.9 mph11.1 kmh 29.64 in1003.7 mb - 0.00 in0.0 mm 0.00 in0.0 mm
11:25 AM 42.1°F5.6°C 27.5°F-2.5°C 56% 8.1 mph WNW13.0 kmh WNW 11.5 mph18.5 kmh 29.64 in1003.7 mb - 0.00 in0.0 mm 0.00 in0.0 mm
11:30 AM 42.3°F5.7°C 27.7°F-2.4°C 56% 5.8 mph WNW9.3 kmh WNW 4.6 mph7.4 kmh 29.63 in1003.4 mb - 0.00 in0.0 mm 0.00 in0.0 mm
11:35 AM 42.4°F5.8°C 27.8°F-2.3°C 56% 3.5 mph WNW5.6 kmh WNW 4.6 mph7.4 kmh 29.63 in1003.4 mb - 0.00 in0.0 mm 0.00 in0.0 mm
11:40 AM 42.6°F5.9°C 28.0°F-2.2°C 56% 8.1 mph W13.0 kmh W 8.1 mph13.0 kmh 29.63 in1003.4 mb - 0.00 in0.0 mm 0.00 in0.0 mm
11:45 AM 42.6°F5.9°C 27.6°F-2.4°C 55% 6.9 mph W11.1 kmh W 9.2 mph14.8 kmh 29.63 in1003.4 mb - 0.00 in0.0 mm 0.00 in0.0 mm
11:50 AM 42.6°F5.9°C 27.6°F-2.4°C 55% 5.8 mph WNW9.3 kmh WNW 4.6 mph7.4 kmh 29.63 in1003.4 mb - 0.00 in0.0 mm 0.00 in0.0 mm
11:55 AM 42.8°F6.0°C 27.7°F-2.4°C 55% 6.9 mph NW11.1 kmh NW 9.2 mph14.8 kmh 29.63 in1003.4 mb - 0.00 in0.0 mm 0.00 in0.0 mm
12:00 PM 43.0°F6.1°C 28.3°F-2.1°C 56% 4.6 mph W7.4 kmh W 10.4 mph16.7 kmh 29.63 in1003.4 mb - 0.00 in0.0 mm 0.00 in0.0 mm
12:10 PM 43.2°F6.2°C 28.1°F-2.2°C 55% 6.9 mph WSW11.1 kmh WSW 11.5 mph18.5 kmh 29.63 in1003.4 mb - 0.00 in0.0 mm 0.00 in0.0 mm
12:15 PM 43.3°F6.3°C 28.7°F-1.8°C 56% 4.6 mph WNW7.4 kmh WNW 4.6 mph7.4 kmh 29.63 in1003.4 mb - 0.00 in0.0 mm 0.00 in0.0 mm
12:20 PM 43.6°F6.4°C 29.0°F-1.7°C 56% 3.5 mph NNW5.6 kmh NNW 4.6 mph7.4 kmh 29.63 in1003.4 mb - 0.00 in0.0 mm 0.00 in0.0 mm
12:25 PM 43.9°F6.6°C 29.2°F-1.6°C 56% 4.6 mph WSW7.4 kmh WSW 3.5 mph5.6 kmh 29.63 in1003.4 mb - 0.00 in0.0 mm 0.00 in0.0 mm
12:30 PM 44.2°F6.8°C 29.5°F-1.4°C 56% 3.5 mph W5.6 kmh W 3.5 mph5.6 kmh 29.62 in1003.0 mb - 0.00 in0.0 mm 0.00 in0.0 mm
12:35 PM 44.2°F6.8°C 29.5°F-1.4°C 56% 3.5 mph W5.6 kmh W 5.8 mph9.3 kmh 29.62 in1003.0 mb - 0.00 in0.0 mm 0.00 in0.0 mm
12:40 PM 44.4°F6.9°C 29.2°F-1.6°C 55% 5.8 mph W9.3 kmh W 8.1 mph13.0 kmh 29.62 in1003.0 mb - 0.00 in0.0 mm 0.00 in0.0 mm
12:45 PM 44.4°F6.9°C 29.2°F-1.6°C 55% 4.6 mph NW7.4 kmh NW 8.1 mph13.0 kmh 29.63 in1003.4 mb - 0.00 in0.0 mm 0.00 in0.0 mm
12:50 PM 44.4°F6.9°C 29.2°F-1.6°C 55% 4.6 mph WNW7.4 kmh WNW 6.9 mph11.1 kmh 29.63 in1003.4 mb - 0.00 in0.0 mm 0.00 in0.0 mm
12:55 PM 44.4°F6.9°C 29.2°F-1.6°C 55% 4.6 mph NW7.4 kmh NW 6.9 mph11.1 kmh 29.63 in1003.4 mb - 0.00 in0.0 mm 0.00 in0.0 mm
01:00 PM 44.6°F7.0°C 29.4°F-1.4°C 55% 5.8 mph WNW9.3 kmh WNW 9.2 mph14.8 kmh 29.63 in1003.4 mb - 0.00 in0.0 mm 0.00 in0.0 mm
01:10 PM 44.8°F7.1°C 29.6°F-1.3°C 55% 5.8 mph NW9.3 kmh NW 4.6 mph7.4 kmh 29.63 in1003.4 mb - 0.00 in0.0 mm 0.00 in0.0 mm
01:15 PM 44.8°F7.1°C 29.6°F-1.3°C 55% 4.6 mph NW7.4 kmh NW 4.6 mph7.4 kmh 29.62 in1003.0 mb - 0.00 in0.0 mm 0.00 in0.0 mm
01:20 PM 45.0°F7.2°C 29.3°F-1.5°C 54% 5.8 mph WNW9.3 kmh WNW 9.2 mph14.8 kmh 29.62 in1003.0 mb - 0.00 in0.0 mm 0.00 in0.0 mm
01:25 PM 45.1°F7.3°C 29.9°F-1.2°C 55% 5.8 mph NW9.3 kmh NW 9.2 mph14.8 kmh 29.62 in1003.0 mb - 0.00 in0.0 mm 0.00 in0.0 mm
01:30 PM 45.1°F7.3°C 29.9°F-1.2°C 55% 5.8 mph WNW9.3 kmh WNW 5.8 mph9.3 kmh 29.63 in1003.4 mb - 0.00 in0.0 mm 0.00 in0.0 mm
01:35 PM 45.1°F7.3°C 29.9°F-1.2°C 55% 5.8 mph W9.3 kmh W 5.8 mph9.3 kmh 29.63 in1003.4 mb - 0.00 in0.0 mm 0.00 in0.0 mm
01:40 PM 45.1°F7.3°C 29.9°F-1.2°C 55% 6.9 mph WNW11.1 kmh WNW 9.2 mph14.8 kmh 29.63 in1003.4 mb - 0.00 in0.0 mm 0.00 in0.0 mm
01:45 PM 45.3°F7.4°C 30.1°F-1.1°C 55% 4.6 mph WSW7.4 kmh WSW 5.8 mph9.3 kmh 29.62 in1003.0 mb - 0.00 in0.0 mm 0.00 in0.0 mm
01:50 PM 45.4°F7.4°C 30.2°F-1.0°C 55% 3.5 mph WNW5.6 kmh WNW 3.5 mph5.6 kmh 29.62 in1003.0 mb - 0.00 in0.0 mm 0.00 in0.0 mm
01:55 PM 45.5°F7.5°C 30.3°F-0.9°C 55% 2.3 mph WNW3.7 kmh WNW 2.3 mph3.7 kmh 29.62 in1003.0 mb - 0.00 in0.0 mm 0.00 in0.0 mm
02:00 PM 46.0°F7.8°C 30.8°F-0.7°C 55% 4.6 mph WNW7.4 kmh WNW 5.8 mph9.3 kmh 29.62 in1003.0 mb - 0.00 in0.0 mm 0.00 in0.0 mm
02:10 PM 47.1°F8.4°C 30.4°F-0.9°C 52% 5.8 mph NW9.3 kmh NW 6.9 mph11.1 kmh 29.62 in1003.0 mb - 0.00 in0.0 mm 0.00 in0.0 mm
02:15 PM 47.3°F8.5°C 30.1°F-1.1°C 51% 5.8 mph NNW9.3 kmh NNW 9.2 mph14.8 kmh 29.62 in1003.0 mb - 0.00 in0.0 mm 0.00 in0.0 mm
02:20 PM 47.2°F8.4°C 29.5°F-1.4°C 50% 8.1 mph N13.0 kmh N 10.4 mph16.7 kmh 29.62 in1003.0 mb - 0.00 in0.0 mm 0.00 in0.0 mm
02:25 PM 47.3°F8.5°C 29.6°F-1.3°C 50% 4.6 mph NNW7.4 kmh NNW 5.8 mph9.3 kmh 29.62 in1003.0 mb - 0.00 in0.0 mm 0.00 in0.0 mm
02:30 PM 47.3°F8.5°C 29.6°F-1.3°C 50% 6.9 mph NW11.1 kmh NW 6.9 mph11.1 kmh 29.62 in1003.0 mb - 0.00 in0.0 mm 0.00 in0.0 mm
02:35 PM 47.3°F8.5°C 30.1°F-1.1°C 51% 3.5 mph NW5.6 kmh NW 5.8 mph9.3 kmh 29.62 in1003.0 mb - 0.00 in0.0 mm 0.00 in0.0 mm
02:40 PM 46.9°F8.3°C 29.7°F-1.3°C 51% 4.6 mph NW7.4 kmh NW 9.2 mph14.8 kmh 29.62 in1003.0 mb - 0.00 in0.0 mm 0.00 in0.0 mm
02:45 PM 46.8°F8.2°C 30.0°F-1.1°C 52% 3.5 mph WNW5.6 kmh WNW 3.5 mph5.6 kmh 29.62 in1003.0 mb - 0.00 in0.0 mm 0.00 in0.0 mm
02:50 PM 46.8°F8.2°C 30.0°F-1.1°C 52% 5.8 mph W9.3 kmh W 5.8 mph9.3 kmh 29.62 in1003.0 mb - 0.00 in0.0 mm 0.00 in0.0 mm
02:55 PM 46.6°F8.1°C 29.4°F-1.4°C 51% 4.6 mph WNW7.4 kmh WNW 8.1 mph13.0 kmh 29.62 in1003.0 mb - 0.00 in0.0 mm 0.00 in0.0 mm
03:00 PM 46.4°F8.0°C 29.2°F-1.6°C 51% 5.8 mph NNW9.3 kmh NNW 5.8 mph9.3 kmh 29.63 in1003.4 mb - 0.00 in0.0 mm 0.00 in0.0 mm
03:10 PM 46.0°F7.8°C 29.4°F-1.4°C 52% 4.6 mph NW7.4 kmh NW 5.8 mph9.3 kmh 29.63 in1003.4 mb - 0.00 in0.0 mm 0.00 in0.0 mm
03:15 PM 45.7°F7.6°C 29.6°F-1.3°C 53% 4.6 mph NW7.4 kmh NW 6.9 mph11.1 kmh 29.62 in1003.0 mb - 0.00 in0.0 mm 0.00 in0.0 mm
03:20 PM 45.5°F7.5°C 29.3°F-1.5°C 53% 3.5 mph WNW5.6 kmh WNW 4.6 mph7.4 kmh 29.62 in1003.0 mb - 0.00 in0.0 mm 0.00 in0.0 mm
03:25 PM 45.3°F7.4°C 29.2°F-1.6°C 53% 2.3 mph WNW3.7 kmh WNW 3.5 mph5.6 kmh 29.62 in1003.0 mb - 0.00 in0.0 mm 0.00 in0.0 mm
03:30 PM 44.8°F7.1°C 29.1°F-1.6°C 54% 3.5 mph WNW5.6 kmh WNW 5.8 mph9.3 kmh 29.62 in1003.0 mb - 0.00 in0.0 mm 0.00 in0.0 mm
03:35 PM 44.6°F7.0°C 29.0°F-1.7°C 54% 3.5 mph WNW5.6 kmh WNW 4.6 mph7.4 kmh 29.62 in1003.0 mb - 0.00 in0.0 mm 0.00 in0.0 mm
03:40 PM 44.2°F6.8°C 28.6°F-1.9°C 54% 3.5 mph WNW5.6 kmh WNW 4.6 mph7.4 kmh 29.62 in1003.0 mb - 0.00 in0.0 mm 0.00 in0.0 mm
03:45 PM 44.1°F6.7°C 28.9°F-1.7°C 55% 2.3 mph WNW3.7 kmh WNW 2.3 mph3.7 kmh 29.63 in1003.4 mb - 0.00 in0.0 mm 0.00 in0.0 mm
03:50 PM 44.0°F6.7°C 28.8°F-1.8°C 55% 1.2 mph WNW1.9 kmh WNW 2.3 mph3.7 kmh 29.63 in1003.4 mb - 0.00 in0.0 mm 0.00 in0.0 mm
03:55 PM 43.7°F6.5°C 28.6°F-1.9°C 55% Calm Calm -- 29.63 in1003.4 mb - 0.00 in0.0 mm 0.00 in0.0 mm
04:00 PM 43.5°F6.4°C 28.4°F-2.0°C 55% 2.3 mph WSW3.7 kmh WSW 3.5 mph5.6 kmh 29.63 in1003.4 mb - 0.00 in0.0 mm 0.00 in0.0 mm
04:10 PM 42.8°F6.0°C 28.2°F-2.1°C 56% 2.3 mph WNW3.7 kmh WNW 3.5 mph5.6 kmh 29.63 in1003.4 mb - 0.00 in0.0 mm 0.00 in0.0 mm
04:15 PM 42.5°F5.8°C 27.9°F-2.3°C 56% 2.3 mph WNW3.7 kmh WNW 3.5 mph5.6 kmh 29.62 in1003.0 mb - 0.00 in0.0 mm 0.00 in0.0 mm
04:20 PM 42.2°F5.7°C 27.6°F-2.4°C 56% 2.3 mph WNW3.7 kmh WNW 2.3 mph3.7 kmh 29.62 in1003.0 mb - 0.00 in0.0 mm 0.00 in0.0 mm
04:25 PM 42.1°F5.6°C 27.9°F-2.3°C 57% 1.2 mph WNW1.9 kmh WNW 2.3 mph3.7 kmh 29.62 in1003.0 mb - 0.00 in0.0 mm 0.00 in0.0 mm
04:30 PM 41.7°F5.4°C 27.6°F-2.4°C 57% Calm Calm 1.2 mph1.9 kmh 29.63 in1003.4 mb - 0.00 in0.0 mm 0.00 in0.0 mm
04:35 PM 41.4°F5.2°C 27.3°F-2.6°C 57% Calm Calm -- 29.63 in1003.4 mb - 0.00 in0.0 mm 0.00 in0.0 mm
04:40 PM 40.8°F4.9°C 27.2°F-2.7°C 58% Calm Calm -- 29.63 in1003.4 mb - 0.00 in0.0 mm 0.00 in0.0 mm
04:45 PM 40.5°F4.7°C 26.8°F-2.9°C 58% Calm Calm 1.2 mph1.9 kmh 29.64 in1003.7 mb - 0.00 in0.0 mm 0.00 in0.0 mm
04:50 PM 40.4°F4.7°C 26.8°F-2.9°C 58% Calm Calm 1.2 mph1.9 kmh 29.64 in1003.7 mb - 0.00 in0.0 mm 0.00 in0.0 mm
04:55 PM 40.1°F4.5°C 26.9°F-2.8°C 59% 3.5 mph SW5.6 kmh SW 3.5 mph5.6 kmh 29.64 in1003.7 mb - 0.00 in0.0 mm 0.00 in0.0 mm
05:00 PM 39.9°F4.4°C 27.1°F-2.7°C 60% 2.3 mph SSW3.7 kmh SSW 2.3 mph3.7 kmh 29.64 in1003.7 mb - 0.00 in0.0 mm 0.00 in0.0 mm
05:10 PM 39.0°F3.9°C 26.7°F-2.9°C 61% Calm Calm 1.2 mph1.9 kmh 29.64 in1003.7 mb - 0.00 in0.0 mm 0.00 in0.0 mm
05:15 PM 38.9°F3.8°C 26.6°F-3.0°C 61% 1.2 mph SSW1.9 kmh SSW 2.3 mph3.7 kmh 29.64 in1003.7 mb - 0.00 in0.0 mm 0.00 in0.0 mm
05:20 PM 38.6°F3.7°C 26.3°F-3.2°C 61% 1.2 mph SSW1.9 kmh SSW 1.2 mph1.9 kmh 29.64 in1003.7 mb - 0.00 in0.0 mm 0.00 in0.0 mm
05:25 PM 38.1°F3.4°C 25.8°F-3.4°C 61% 1.2 mph SSW1.9 kmh SSW 2.3 mph3.7 kmh 29.64 in1003.7 mb - 0.00 in0.0 mm 0.00 in0.0 mm
05:30 PM 37.9°F3.3°C 26.1°F-3.3°C 62% 1.2 mph SSW1.9 kmh SSW 2.3 mph3.7 kmh 29.64 in1003.7 mb - 0.00 in0.0 mm 0.00 in0.0 mm
05:35 PM 37.8°F3.2°C 27.0°F-2.8°C 65% 1.2 mph SSW1.9 kmh SSW 2.3 mph3.7 kmh 29.64 in1003.7 mb - 0.00 in0.0 mm 0.00 in0.0 mm
05:40 PM 36.4°F2.4°C 26.1°F-3.3°C 66% 1.2 mph SSW1.9 kmh SSW 1.2 mph1.9 kmh 29.64 in1003.7 mb - 0.00 in0.0 mm 0.00 in0.0 mm
05:45 PM 36.1°F2.3°C 25.5°F-3.6°C 65% Calm Calm -- 29.64 in1003.7 mb - 0.00 in0.0 mm 0.00 in0.0 mm
05:50 PM 36.1°F2.3°C 25.5°F-3.6°C 65% Calm Calm -- 29.64 in1003.7 mb - 0.00 in0.0 mm 0.00 in0.0 mm
05:55 PM 36.1°F2.3°C 25.5°F-3.6°C 65% Calm Calm -- 29.64 in1003.7 mb - 0.00 in0.0 mm 0.00 in0.0 mm
06:00 PM 36.0°F2.2°C 25.3°F-3.7°C 65% Calm Calm -- 29.63 in1003.4 mb - 0.00 in0.0 mm 0.00 in0.0 mm
06:10 PM 35.4°F1.9°C 25.2°F-3.8°C 66% Calm Calm -- 29.63 in1003.4 mb - 0.00 in0.0 mm 0.00 in0.0 mm
06:15 PM 35.1°F1.7°C 24.9°F-3.9°C 66% Calm Calm -- 29.63 in1003.4 mb - 0.00 in0.0 mm 0.00 in0.0 mm
06:20 PM 34.9°F1.6°C 24.7°F-4.1°C 66% Calm Calm -- 29.63 in1003.4 mb - 0.00 in0.0 mm 0.00 in0.0 mm
06:25 PM 34.7°F1.5°C 24.5°F-4.2°C 66% Calm Calm 1.2 mph1.9 kmh 29.63 in1003.4 mb - 0.00 in0.0 mm 0.00 in0.0 mm
06:30 PM 34.2°F1.2°C 24.3°F-4.3°C 67% 1.2 mph SSW1.9 kmh SSW 1.2 mph1.9 kmh 29.63 in1003.4 mb - 0.00 in0.0 mm 0.00 in0.0 mm
06:35 PM 33.6°F0.9°C 24.5°F-4.2°C 69% Calm Calm -- 29.63 in1003.4 mb - 0.00 in0.0 mm 0.00 in0.0 mm
06:40 PM 33.4°F0.8°C 24.4°F-4.2°C 69% 1.2 mph SSW1.9 kmh SSW 1.2 mph1.9 kmh 29.63 in1003.4 mb - 0.00 in0.0 mm 0.00 in0.0 mm
06:45 PM 33.3°F0.7°C 23.9°F-4.5°C 68% 2.3 mph SSW3.7 kmh SSW 2.3 mph3.7 kmh 29.64 in1003.7 mb - 0.00 in0.0 mm 0.00 in0.0 mm
06:50 PM 32.9°F0.5°C 23.5°F-4.7°C 68% 2.3 mph SSW3.7 kmh SSW 3.5 mph5.6 kmh 29.64 in1003.7 mb - 0.00 in0.0 mm 0.00 in0.0 mm
06:55 PM 33.3°F0.7°C 24.5°F-4.2°C 70% 2.3 mph SSW3.7 kmh SSW 3.5 mph5.6 kmh 29.64 in1003.7 mb - 0.00 in0.0 mm 0.00 in0.0 mm
07:00 PM 33.6°F0.9°C 25.2°F-3.8°C 71% 3.5 mph SSW5.6 kmh SSW 3.5 mph5.6 kmh 29.64 in1003.7 mb - 0.00 in0.0 mm 0.00 in0.0 mm
07:10 PM 33.3°F0.7°C 24.9°F-3.9°C 71% Calm Calm -- 29.64 in1003.7 mb - 0.00 in0.0 mm 0.00 in0.0 mm
07:15 PM 33.2°F0.7°C 24.8°F-4.0°C 71% 1.2 mph SSW1.9 kmh SSW 1.2 mph1.9 kmh 29.64 in1003.7 mb - 0.00 in0.0 mm 0.00 in0.0 mm
07:20 PM 33.0°F0.6°C 24.7°F-4.1°C 71% 2.3 mph SSW3.7 kmh SSW 3.5 mph5.6 kmh 29.64 in1003.7 mb - 0.00 in0.0 mm 0.00 in0.0 mm
07:25 PM 33.3°F0.7°C 24.9°F-3.9°C 71% 2.3 mph S3.7 kmh S 2.3 mph3.7 kmh 29.64 in1003.7 mb - 0.00 in0.0 mm 0.00 in0.0 mm
07:30 PM 33.4°F0.8°C 25.4°F-3.7°C 72% 2.3 mph SSW3.7 kmh SSW 2.3 mph3.7 kmh 29.63 in1003.4 mb - 0.00 in0.0 mm 0.00 in0.0 mm
07:35 PM 33.4°F0.8°C 25.4°F-3.7°C 72% 2.3 mph SSW3.7 kmh SSW 2.3 mph3.7 kmh 29.63 in1003.4 mb - 0.00 in0.0 mm 0.00 in0.0 mm
07:40 PM 33.4°F0.8°C 25.4°F-3.7°C 72% 2.3 mph SSW3.7 kmh SSW 2.3 mph3.7 kmh 29.63 in1003.4 mb - 0.00 in0.0 mm 0.00 in0.0 mm
07:45 PM 33.3°F0.7°C 25.2°F-3.8°C 72% 2.3 mph SSW3.7 kmh SSW 2.3 mph3.7 kmh 29.64 in1003.7 mb - 0.00 in0.0 mm 0.00 in0.0 mm
07:50 PM 33.3°F0.7°C 25.2°F-3.8°C 72% 2.3 mph SSW3.7 kmh SSW 2.3 mph3.7 kmh 29.64 in1003.7 mb - 0.00 in0.0 mm 0.00 in0.0 mm
07:55 PM 33.4°F0.8°C 25.4°F-3.7°C 72% 1.2 mph SSW1.9 kmh SSW 2.3 mph3.7 kmh 29.64 in1003.7 mb - 0.00 in0.0 mm 0.00 in0.0 mm
08:00 PM 33.4°F0.8°C 25.4°F-3.7°C 72% 2.3 mph SSW3.7 kmh SSW 2.3 mph3.7 kmh 29.63 in1003.4 mb - 0.00 in0.0 mm 0.00 in0.0 mm
08:10 PM 33.3°F0.7°C 25.2°F-3.8°C 72% 2.3 mph SSW3.7 kmh SSW 3.5 mph5.6 kmh 29.63 in1003.4 mb - 0.00 in0.0 mm 0.00 in0.0 mm
08:15 PM 33.3°F0.7°C 25.3°F-3.7°C 72% 3.5 mph SSW5.6 kmh SSW 3.5 mph5.6 kmh 29.63 in1003.4 mb - 0.00 in0.0 mm 0.00 in0.0 mm
08:20 PM 33.6°F0.9°C 25.9°F-3.4°C 73% 3.5 mph SSW5.6 kmh SSW 3.5 mph5.6 kmh 29.63 in1003.4 mb - 0.00 in0.0 mm 0.00 in0.0 mm
08:25 PM 33.6°F0.9°C 25.6°F-3.6°C 72% 2.3 mph SSW3.7 kmh SSW 2.3 mph3.7 kmh 29.63 in1003.4 mb - 0.00 in0.0 mm 0.00 in0.0 mm
08:30 PM 33.4°F0.8°C 25.4°F-3.7°C 72% 2.3 mph SSW3.7 kmh SSW 2.3 mph3.7 kmh 29.63 in1003.4 mb - 0.00 in0.0 mm 0.00 in0.0 mm
08:35 PM 33.4°F0.8°C 25.4°F-3.7°C 72% 2.3 mph S3.7 kmh S 2.3 mph3.7 kmh 29.63 in1003.4 mb - 0.00 in0.0 mm 0.00 in0.0 mm
08:40 PM 33.6°F0.9°C 25.5°F-3.6°C 72% 2.3 mph SSW3.7 kmh SSW 3.5 mph5.6 kmh 29.63 in1003.4 mb - 0.00 in0.0 mm 0.00 in0.0 mm
08:45 PM 34.0°F1.1°C 25.9°F-3.4°C 72% 2.3 mph SSW3.7 kmh SSW 3.5 mph5.6 kmh 29.63 in1003.4 mb - 0.00 in0.0 mm 0.00 in0.0 mm
08:50 PM 34.0°F1.1°C 25.9°F-3.4°C 72% 2.3 mph SSW3.7 kmh SSW 2.3 mph3.7 kmh 29.63 in1003.4 mb - 0.00 in0.0 mm 0.00 in0.0 mm
08:55 PM 33.8°F1.0°C 25.4°F-3.7°C 71% 2.3 mph S3.7 kmh S 2.3 mph3.7 kmh 29.63 in1003.4 mb - 0.00 in0.0 mm 0.00 in0.0 mm
09:00 PM 33.8°F1.0°C 25.4°F-3.7°C 71% 2.3 mph SSW3.7 kmh SSW 3.5 mph5.6 kmh 29.63 in1003.4 mb - 0.00 in0.0 mm 0.00 in0.0 mm
09:10 PM 34.0°F1.1°C 25.6°F-3.6°C 71% 3.5 mph SSW5.6 kmh SSW 3.5 mph5.6 kmh 29.63 in1003.4 mb - 0.00 in0.0 mm 0.00 in0.0 mm
09:15 PM 34.2°F1.2°C 25.7°F-3.5°C 71% 3.5 mph SSW5.6 kmh SSW 3.5 mph5.6 kmh 29.63 in1003.4 mb - 0.00 in0.0 mm 0.00 in0.0 mm
09:20 PM 34.2°F1.2°C 25.7°F-3.5°C 71% 2.3 mph SSW3.7 kmh SSW 3.5 mph5.6 kmh 29.63 in1003.4 mb - 0.00 in0.0 mm 0.00 in0.0 mm
09:25 PM 34.2°F1.2°C 25.4°F-3.7°C 70% 2.3 mph SSW3.7 kmh SSW 2.3 mph3.7 kmh 29.63 in1003.4 mb - 0.00 in0.0 mm 0.00 in0.0 mm
09:30 PM 34.2°F1.2°C 25.4°F-3.7°C 70% 2.3 mph SSW3.7 kmh SSW 3.5 mph5.6 kmh 29.63 in1003.4 mb - 0.00 in0.0 mm 0.00 in0.0 mm
09:35 PM 34.2°F1.2°C 25.4°F-3.7°C 70% 3.5 mph SSW5.6 kmh SSW 3.5 mph5.6 kmh 29.63 in1003.4 mb - 0.00 in0.0 mm 0.00 in0.0 mm
09:40 PM 34.3°F1.3°C 25.6°F-3.6°C 70% 3.5 mph SSW5.6 kmh SSW 3.5 mph5.6 kmh 29.63 in1003.4 mb - 0.00 in0.0 mm 0.00 in0.0 mm
09:45 PM 34.3°F1.3°C 25.5°F-3.6°C 70% 2.3 mph SSW3.7 kmh SSW 2.3 mph3.7 kmh 29.63 in1003.4 mb - 0.00 in0.0 mm 0.00 in0.0 mm
09:50 PM 34.2°F1.2°C 25.4°F-3.7°C 70% 2.3 mph SSW3.7 kmh SSW 3.5 mph5.6 kmh 29.63 in1003.4 mb - 0.00 in0.0 mm 0.00 in0.0 mm
09:55 PM 34.2°F1.2°C 25.4°F-3.7°C 70% 3.5 mph SSW5.6 kmh SSW 3.5 mph5.6 kmh 29.63 in1003.4 mb - 0.00 in0.0 mm 0.00 in0.0 mm
10:00 PM 34.2°F1.2°C 25.4°F-3.7°C 70% 3.5 mph SW5.6 kmh SW 3.5 mph5.6 kmh 29.62 in1003.0 mb - 0.00 in0.0 mm 0.00 in0.0 mm
10:10 PM 34.2°F1.2°C 25.4°F-3.7°C 70% 3.5 mph SSW5.6 kmh SSW 3.5 mph5.6 kmh 29.62 in1003.0 mb - 0.00 in0.0 mm 0.00 in0.0 mm
10:15 PM 34.2°F1.2°C 25.4°F-3.7°C 70% 3.5 mph SSW5.6 kmh SSW 3.5 mph5.6 kmh 29.62 in1003.0 mb - 0.00 in0.0 mm 0.00 in0.0 mm
10:20 PM 34.2°F1.2°C 25.4°F-3.7°C 70% 3.5 mph SW5.6 kmh SW 4.6 mph7.4 kmh 29.62 in1003.0 mb - 0.00 in0.0 mm 0.00 in0.0 mm
10:25 PM 34.0°F1.1°C 25.2°F-3.8°C 70% 3.5 mph SSW5.6 kmh SSW 3.5 mph5.6 kmh 29.62 in1003.0 mb - 0.00 in0.0 mm 0.00 in0.0 mm
10:30 PM 33.8°F1.0°C 25.0°F-3.9°C 70% 2.3 mph SSW3.7 kmh SSW 3.5 mph5.6 kmh 29.62 in1003.0 mb - 0.00 in0.0 mm 0.00 in0.0 mm
10:35 PM 33.8°F1.0°C 25.0°F-3.9°C 70% 3.5 mph SSW5.6 kmh SSW 3.5 mph5.6 kmh 29.62 in1003.0 mb - 0.00 in0.0 mm 0.00 in0.0 mm
10:40 PM 33.8°F1.0°C 25.0°F-3.9°C 70% 3.5 mph SSW5.6 kmh SSW 3.5 mph5.6 kmh 29.62 in1003.0 mb - 0.00 in0.0 mm 0.00 in0.0 mm
10:45 PM 33.6°F0.9°C 24.9°F-3.9°C 70% 2.3 mph SW3.7 kmh SW 2.3 mph3.7 kmh 29.63 in1003.4 mb - 0.00 in0.0 mm 0.00 in0.0 mm
10:50 PM 33.4°F0.8°C 24.7°F-4.1°C 70% 2.3 mph SW3.7 kmh SW 2.3 mph3.7 kmh 29.63 in1003.4 mb - 0.00 in0.0 mm 0.00 in0.0 mm
10:55 PM 33.3°F0.7°C 24.5°F-4.2°C 70% 2.3 mph SW3.7 kmh SW 3.5 mph5.6 kmh 29.63 in1003.4 mb - 0.00 in0.0 mm 0.00 in0.0 mm
11:00 PM 33.3°F0.7°C 24.9°F-3.9°C 71% 2.3 mph SW3.7 kmh SW 3.5 mph5.6 kmh 29.62 in1003.0 mb - 0.00 in0.0 mm 0.00 in0.0 mm
11:10 PM 33.4°F0.8°C 25.0°F-3.9°C 71% 4.6 mph SSW7.4 kmh SSW 5.8 mph9.3 kmh 29.62 in1003.0 mb - 0.00 in0.0 mm 0.00 in0.0 mm
11:15 PM 33.5°F0.8°C 25.1°F-3.8°C 71% 4.6 mph SW7.4 kmh SW 5.8 mph9.3 kmh 29.62 in1003.0 mb - 0.00 in0.0 mm 0.00 in0.0 mm
11:20 PM 33.8°F1.0°C 25.4°F-3.7°C 71% 3.5 mph WSW5.6 kmh WSW 3.5 mph5.6 kmh 29.62 in1003.0 mb - 0.00 in0.0 mm 0.00 in0.0 mm
11:25 PM 33.8°F1.0°C 25.4°F-3.7°C 71% 4.6 mph SSW7.4 kmh SSW 4.6 mph7.4 kmh 29.62 in1003.0 mb - 0.00 in0.0 mm 0.00 in0.0 mm
11:30 PM 33.8°F1.0°C 25.4°F-3.7°C 71% 4.6 mph SW7.4 kmh SW 5.8 mph9.3 kmh 29.61 in1002.7 mb - 0.00 in0.0 mm 0.00 in0.0 mm
11:35 PM 34.2°F1.2°C 25.7°F-3.5°C 71% 3.5 mph SW5.6 kmh SW 3.5 mph5.6 kmh 29.61 in1002.7 mb - 0.00 in0.0 mm 0.00 in0.0 mm
11:40 PM 34.2°F1.2°C 25.5°F-3.6°C 70% 4.6 mph SSW7.4 kmh SSW 5.8 mph9.3 kmh 29.61 in1002.7 mb - 0.00 in0.0 mm 0.00 in0.0 mm
11:45 PM 34.3°F1.3°C 25.5°F-3.6°C 70% 4.6 mph SSW7.4 kmh SSW 4.6 mph7.4 kmh 29.61 in1002.7 mb - 0.00 in0.0 mm 0.00 in0.0 mm
11:50 PM 34.3°F1.3°C 25.6°F-3.6°C 70% 3.5 mph SW5.6 kmh SW 3.5 mph5.6 kmh 29.61 in1002.7 mb - 0.00 in0.0 mm 0.00 in0.0 mm
11:55 PM 34.2°F1.2°C 25.4°F-3.7°C 70% 3.5 mph SW5.6 kmh SW 3.5 mph5.6 kmh 29.61 in1002.7 mb - 0.00 in0.0 mm 0.00 in0.0 mm